createdAt,value
2019-04-23T00:02:53.653Z,11.08
2019-04-23T00:06:04.122Z,11.65
2019-04-23T00:09:10.996Z,11.95
2019-04-23T00:12:01.814Z,11.73
2019-04-23T00:15:09.249Z,11.40
2019-04-23T00:18:12.389Z,10.65
2019-04-23T00:21:24.811Z,12.07
2019-04-23T00:25:21.953Z,10.70
2019-04-23T00:27:51.521Z,10.90
2019-04-23T00:30:54.974Z,11.33
2019-04-23T00:33:49.612Z,11.75
2019-04-23T00:37:06.469Z,11.53
2019-04-23T00:39:59.185Z,11.43
2019-04-23T00:43:01.999Z,10.72
2019-04-23T00:46:06.595Z,11.00
2019-04-23T00:49:10.765Z,12.05
2019-04-23T00:52:14.552Z,10.55
2019-04-23T00:55:15.891Z,11.20
2019-04-23T00:58:22.402Z,12.40
2019-04-23T01:01:29.618Z,12.47
2019-04-23T01:04:27.500Z,12.68
2019-04-23T01:07:31.861Z,11.80
2019-04-23T01:10:52.537Z,12.20
2019-04-23T01:14:01.036Z,11.78
2019-04-23T01:16:48.429Z,11.73
2019-04-23T01:19:57.737Z,11.83
2019-04-23T01:22:44.274Z,11.95
2019-04-23T01:26:26.322Z,11.57
2019-04-23T01:29:38.870Z,11.97
2019-04-23T01:32:36.456Z,12.98
2019-04-23T01:35:41.662Z,11.75
2019-04-23T01:38:49.952Z,11.63
2019-04-23T01:47:54.853Z,11.20
2019-04-23T01:50:57.475Z,12.07
2019-04-23T01:54:02.944Z,11.75
2019-04-23T01:57:09.187Z,11.53
2019-04-23T02:00:17.322Z,11.30
2019-04-23T02:03:18.458Z,11.18
2019-04-23T02:06:16.566Z,11.28
2019-04-23T02:09:17.270Z,11.65
2019-04-23T02:12:25.906Z,11.60
2019-04-23T02:15:29.940Z,12.53
2019-04-23T02:18:30.687Z,11.40
2019-04-23T02:21:38.462Z,12.60
2019-04-23T02:24:41.406Z,12.82
2019-04-23T02:27:42.650Z,12.82
2019-04-23T02:31:12.176Z,12.80
2019-04-23T02:34:00.488Z,13.22
2019-04-23T02:37:00.571Z,13.40
2019-04-23T02:40:08.771Z,15.18
2019-04-23T02:43:15.246Z,16.17
2019-04-23T02:52:18.291Z,14.35
2019-04-23T03:01:49.482Z,14.47
2019-04-23T03:08:00.063Z,14.98
2019-04-23T03:11:01.363Z,14.33
2019-04-23T03:20:21.404Z,14.60
2019-04-23T03:26:57.381Z,14.80
2019-04-23T03:29:48.972Z,16.35
2019-04-23T03:33:29.379Z,15.35
2019-04-23T03:38:48.854Z,15.90
2019-04-23T03:41:54.191Z,16.93
2019-04-23T03:45:13.983Z,15.80
2019-04-23T03:48:05.961Z,15.55
2019-04-23T03:51:03.326Z,17.20
2019-04-23T04:00:31.677Z,16.10
2019-04-23T04:03:42.262Z,16.75
2019-04-23T04:06:40.706Z,16.73
2019-04-23T04:09:34.154Z,16.52
2019-04-23T04:12:29.207Z,16.17
2019-04-23T04:18:38.618Z,16.10
2019-04-23T04:24:39.878Z,16.07
2019-04-23T04:27:58.009Z,15.18
2019-04-23T04:37:16.746Z,15.00
2019-04-23T04:43:13.824Z,14.47
2019-04-23T04:49:17.041Z,14.53
2019-04-23T04:52:21.871Z,14.58
2019-04-23T04:55:16.224Z,13.75
2019-04-23T04:58:32.254Z,14.65
2019-04-23T05:01:23.846Z,14.10
2019-04-23T05:07:36.026Z,13.10
2019-04-23T05:16:38.808Z,13.45
2019-04-23T05:19:42.592Z,13.30
2019-04-23T05:22:49.343Z,12.60
2019-04-23T05:25:44.782Z,12.68
2019-04-23T05:28:55.933Z,12.05
2019-04-23T05:31:48.401Z,12.15
2019-04-23T05:34:57.680Z,12.55
2019-04-23T05:47:11.702Z,11.68
2019-04-23T05:50:18.613Z,12.50
2019-04-23T05:53:11.583Z,12.20
2019-04-23T05:56:20.659Z,12.13
2019-04-23T05:59:16.051Z,11.25
2019-04-23T06:02:32.427Z,12.98
2019-04-23T06:05:32.983Z,11.75
2019-04-23T06:08:38.574Z,11.75
2019-04-23T06:11:47.340Z,11.22
2019-04-23T06:14:45.781Z,11.40
2019-04-23T06:18:02.257Z,10.88
2019-04-23T06:20:59.033Z,10.90
2019-04-23T06:23:51.342Z,10.10
2019-04-23T06:29:57.096Z,11.38
2019-04-23T06:33:11.168Z,10.55
2019-04-23T06:36:10.307Z,9.58
2019-04-23T06:39:01.338Z,10.65
2019-04-23T06:42:06.000Z,10.85
2019-04-23T06:45:19.297Z,9.53
2019-04-23T06:48:24.322Z,9.45
2019-04-23T06:51:25.861Z,9.10
2019-04-23T06:54:24.478Z,9.08
2019-04-23T06:57:41.019Z,8.80
2019-04-23T07:03:43.177Z,8.80
2019-04-23T07:06:46.869Z,8.43
2019-04-23T07:09:43.863Z,8.20
2019-04-23T07:13:01.260Z,8.03
2019-04-23T07:15:53.763Z,7.53
2019-04-23T07:19:07.773Z,7.30
2019-04-23T07:22:09.992Z,7.28
2019-04-23T07:25:17.297Z,7.22
2019-04-23T07:28:12.924Z,7.30
2019-04-23T07:31:28.351Z,7.53
2019-04-23T07:34:12.344Z,7.20
2019-04-23T07:37:17.623Z,7.00
2019-04-23T07:40:35.147Z,7.22
2019-04-23T07:43:58.999Z,7.08
2019-04-23T07:47:11.667Z,7.30
2019-04-23T07:50:09.827Z,6.72
2019-04-23T07:56:11.519Z,7.75
2019-04-23T07:59:16.092Z,7.47
2019-04-23T08:02:21.966Z,7.20
2019-04-23T08:05:22.489Z,8.05
2019-04-23T08:08:24.803Z,6.75
2019-04-23T08:11:34.301Z,6.40
2019-04-23T08:14:32.680Z,6.95
2019-04-23T08:17:37.405Z,6.90
2019-04-23T08:20:55.708Z,6.50
2019-04-23T08:24:10.672Z,7.20
2019-04-23T08:27:18.056Z,7.37
2019-04-23T08:30:16.909Z,6.95
2019-04-23T08:33:24.449Z,7.08
2019-04-23T08:36:39.517Z,7.03
2019-04-23T08:39:38.590Z,7.30
2019-04-23T08:42:52.921Z,7.37
2019-04-23T08:45:48.223Z,7.50
2019-04-23T08:48:49.645Z,7.78
2019-04-23T08:57:47.435Z,8.55
2019-04-23T09:01:05.129Z,7.40
2019-04-23T09:04:09.325Z,7.15
2019-04-23T09:07:17.880Z,7.72
2019-04-23T09:10:19.576Z,7.20
2019-04-23T09:13:50.240Z,7.08
2019-04-23T09:16:28.422Z,8.75
2019-04-23T09:22:38.897Z,7.17
2019-04-23T09:28:56.751Z,8.35
2019-04-23T09:32:13.447Z,6.97
2019-04-23T09:38:19.565Z,7.85
2019-04-23T09:41:27.025Z,8.13
2019-04-23T09:44:56.812Z,8.43
2019-04-23T09:51:04.955Z,7.95
2019-04-23T09:54:09.197Z,6.62
2019-04-23T09:57:06.159Z,7.72
2019-04-23T10:00:22.483Z,7.42
2019-04-23T10:03:07.967Z,7.30
2019-04-23T10:06:02.985Z,7.65
2019-04-23T10:09:01.461Z,7.58
2019-04-23T10:12:03.081Z,8.10
2019-04-23T10:15:13.184Z,7.05
2019-04-23T10:18:10.090Z,8.38
2019-04-23T10:21:13.048Z,7.67
2019-04-23T10:24:15.188Z,7.85
2019-04-23T10:27:18.777Z,7.42
2019-04-23T10:30:21.801Z,7.60
2019-04-23T10:33:23.642Z,7.50
2019-04-23T10:36:29.505Z,7.80
2019-04-23T10:39:35.109Z,7.62
2019-04-23T10:42:35.884Z,7.55
2019-04-23T10:45:59.269Z,8.00
2019-04-23T10:55:25.599Z,7.75
2019-04-23T11:01:32.523Z,7.10
2019-04-23T11:10:32.862Z,7.67
2019-04-23T11:13:50.227Z,7.33
2019-04-23T11:19:56.674Z,7.20
2019-04-23T11:22:51.792Z,6.95
2019-04-23T11:25:56.107Z,6.83
2019-04-23T11:29:15.050Z,7.42
2019-04-23T11:32:19.773Z,7.10
2019-04-23T11:35:33.907Z,7.87
2019-04-23T11:38:43.600Z,7.33
2019-04-23T11:41:25.061Z,7.30
2019-04-23T11:44:26.939Z,7.72
2019-04-23T11:47:45.628Z,7.95
2019-04-23T11:53:33.881Z,7.53
2019-04-23T11:57:13.471Z,7.83
2019-04-23T12:06:15.351Z,7.22
2019-04-23T12:12:37.864Z,7.70
2019-04-23T12:18:51.425Z,7.50
2019-04-23T12:21:43.971Z,7.37
2019-04-23T12:27:38.619Z,7.37
2019-04-23T12:30:50.593Z,7.67
2019-04-23T12:33:57.548Z,7.30
2019-04-23T12:37:06.138Z,8.13
2019-04-23T12:40:15.412Z,7.58
2019-04-23T12:43:17.493Z,7.92
2019-04-23T12:46:17.762Z,7.35
2019-04-23T12:49:44.224Z,7.55
2019-04-23T12:58:39.794Z,8.00
2019-04-23T13:01:47.026Z,8.05
2019-04-23T13:04:42.023Z,7.40
2019-04-23T13:07:43.633Z,7.50
2019-04-23T13:10:47.962Z,7.95
2019-04-23T13:13:53.506Z,7.45
2019-04-23T13:17:05.063Z,7.67
2019-04-23T13:20:03.598Z,7.50
2019-04-23T13:26:22.023Z,7.78
2019-04-23T13:29:18.470Z,7.85
2019-04-23T13:32:24.265Z,8.15
2019-04-23T13:41:26.107Z,8.78
2019-04-23T13:44:33.633Z,8.75
2019-04-23T13:47:50.494Z,9.58
2019-04-23T13:50:57.822Z,9.48
2019-04-23T13:53:50.296Z,9.15
2019-04-23T13:57:24.066Z,8.93
2019-04-23T13:59:48.441Z,9.15
2019-04-23T14:02:56.001Z,9.13
2019-04-23T14:09:21.627Z,10.43
2019-04-23T14:12:18.217Z,10.25
2019-04-23T14:18:53.116Z,10.50
2019-04-23T14:21:37.543Z,10.50
2019-04-23T14:24:40.724Z,11.00
2019-04-23T14:27:36.417Z,10.72
2019-04-23T14:30:46.572Z,9.70
2019-04-23T14:36:52.740Z,9.18
2019-04-23T14:39:52.984Z,8.75
2019-04-23T14:43:04.231Z,10.35
2019-04-23T14:46:31.122Z,10.70
2019-04-23T14:49:07.213Z,9.93
2019-04-23T14:52:14.227Z,10.80
2019-04-23T14:58:39.681Z,14.23
2019-04-23T15:01:34.718Z,10.63
2019-04-23T15:04:42.262Z,9.95
2019-04-23T15:07:42.118Z,10.23
2019-04-23T15:11:05.217Z,8.80
2019-04-23T15:13:49.434Z,9.05
2019-04-23T15:16:54.414Z,9.08
2019-04-23T15:23:25.439Z,9.18
2019-04-23T15:28:56.071Z,9.20
2019-04-23T15:32:21.700Z,8.40
2019-04-23T15:35:39.647Z,9.58
2019-04-23T15:38:36.099Z,8.60
2019-04-23T15:41:32.083Z,11.80
2019-04-23T15:44:28.201Z,9.58
2019-04-23T15:47:32.613Z,9.30
2019-04-23T15:50:38.535Z,8.28
2019-04-23T15:53:37.251Z,8.53
2019-04-23T16:02:21.642Z,8.43
2019-04-23T16:05:27.842Z,8.25
2019-04-23T16:11:56.885Z,8.40
2019-04-23T16:18:45.395Z,8.38
2019-04-23T16:21:47.301Z,8.55
2019-04-23T16:24:55.319Z,8.60
2019-04-23T16:27:46.809Z,8.70
2019-04-23T16:30:48.172Z,8.43
2019-04-23T16:37:08.131Z,7.85
2019-04-23T16:40:28.323Z,8.50
2019-04-23T16:43:12.715Z,9.58
2019-04-23T16:46:21.514Z,8.75
2019-04-23T16:49:21.969Z,8.75
2019-04-23T16:52:26.150Z,8.60
2019-04-23T16:55:29.470Z,12.28
2019-04-23T16:58:42.097Z,9.33
2019-04-23T17:01:39.708Z,8.50
2019-04-23T17:04:38.622Z,11.18
2019-04-23T17:07:53.340Z,8.90
2019-04-23T17:10:55.469Z,8.45
2019-04-23T17:13:58.952Z,9.08
2019-04-23T17:16:49.646Z,10.15
2019-04-23T17:19:59.414Z,9.10
2019-04-23T17:23:07.445Z,8.18
2019-04-23T17:29:18.623Z,9.03
2019-04-23T17:32:09.817Z,8.60
2019-04-23T17:35:24.486Z,9.20
2019-04-23T17:38:33.673Z,9.63
2019-04-23T17:41:50.632Z,9.18
2019-04-23T17:44:54.615Z,10.00
2019-04-23T17:47:59.310Z,8.98
2019-04-23T17:51:15.395Z,8.98
2019-04-23T17:54:06.572Z,8.95
2019-04-23T17:57:11.778Z,10.30
2019-04-23T18:03:28.229Z,9.05
2019-04-23T18:06:28.309Z,9.20
2019-04-23T18:09:18.370Z,9.03
2019-04-23T18:12:30.765Z,9.35
2019-04-23T18:15:35.222Z,9.95
2019-04-23T18:18:38.178Z,9.68
2019-04-23T18:25:04.346Z,9.70
2019-04-23T18:28:00.357Z,10.45
2019-04-23T18:31:33.272Z,10.60
2019-04-23T18:34:47.126Z,10.32
2019-04-23T18:37:58.373Z,10.40
2019-04-23T18:47:17.367Z,10.40
2019-04-23T18:50:22.663Z,10.48
2019-04-23T18:53:25.636Z,11.40
2019-04-23T18:56:19.329Z,11.75
2019-04-23T18:59:34.443Z,11.68
2019-04-23T19:05:43.314Z,11.43
2019-04-23T19:08:59.924Z,11.85
2019-04-23T19:15:26.568Z,10.68
2019-04-23T19:18:19.153Z,11.33
2019-04-23T19:24:31.624Z,10.82
2019-04-23T19:27:36.661Z,11.15
2019-04-23T19:30:56.573Z,10.58
2019-04-23T19:40:20.168Z,10.30
2019-04-23T19:46:43.995Z,10.68
2019-04-23T19:49:34.223Z,11.12
2019-04-23T19:52:53.414Z,10.35
2019-04-23T19:55:49.860Z,10.10
2019-04-23T20:01:49.759Z,11.85
2019-04-23T20:04:45.924Z,11.03
2019-04-23T20:10:57.832Z,11.55
2019-04-23T20:13:57.486Z,13.68
2019-04-23T20:17:31.765Z,10.05
2019-04-23T20:20:04.536Z,10.48
2019-04-23T20:23:14.031Z,10.32
2019-04-23T20:29:29.669Z,9.80
2019-04-23T20:33:00.103Z,9.73
2019-04-23T20:35:38.400Z,9.80
2019-04-23T20:42:02.416Z,10.18
2019-04-23T20:48:01.684Z,9.98
2019-04-23T20:50:56.352Z,9.60
2019-04-23T20:54:29.517Z,10.00
2019-04-23T20:57:39.199Z,11.08
2019-04-23T21:00:35.007Z,9.38
2019-04-23T21:06:45.925Z,9.28
2019-04-23T21:10:09.616Z,9.20
2019-04-23T21:15:54.644Z,9.10
2019-04-23T21:18:49.882Z,9.33
2019-04-23T21:22:09.515Z,8.98
2019-04-23T21:25:14.828Z,8.90
2019-04-23T21:28:17.271Z,8.90
2019-04-23T21:31:11.357Z,8.98
2019-04-23T21:34:26.917Z,8.95
2019-04-23T21:37:37.672Z,8.45
2019-04-23T21:41:02.246Z,8.48
2019-04-23T21:44:52.771Z,8.35
2019-04-23T21:46:51.122Z,9.00
2019-04-23T21:50:03.044Z,8.33
2019-04-23T21:52:56.090Z,8.58
2019-04-23T21:56:06.938Z,9.03
2019-04-23T21:59:04.339Z,8.48
2019-04-23T22:02:07.166Z,8.43
2019-04-23T22:05:17.490Z,8.90
2019-04-23T22:08:05.780Z,9.15
2019-04-23T22:11:53.652Z,8.40
2019-04-23T22:14:19.604Z,8.55
2019-04-23T22:17:27.321Z,8.55
2019-04-23T22:23:40.927Z,8.60
2019-04-23T22:26:36.296Z,8.43
2019-04-23T22:29:39.139Z,8.50
2019-04-23T22:35:51.470Z,8.78
2019-04-23T22:38:49.482Z,9.23
2019-04-23T22:42:08.906Z,8.80
2019-04-23T22:45:10.496Z,8.68
2019-04-23T22:51:11.041Z,8.18
2019-04-23T22:54:06.993Z,8.05
2019-04-23T22:57:05.815Z,7.85
2019-04-23T23:03:21.400Z,7.83
2019-04-23T23:06:57.285Z,8.40
2019-04-23T23:09:54.239Z,8.45
2019-04-23T23:12:58.414Z,8.03
2019-04-23T23:15:59.623Z,8.08
2019-04-23T23:25:16.816Z,8.13
2019-04-23T23:28:12.123Z,7.75
2019-04-23T23:34:15.594Z,8.13
2019-04-23T23:37:12.046Z,7.70
2019-04-23T23:40:25.713Z,7.62
2019-04-23T23:43:24.249Z,7.62
2019-04-23T23:46:35.253Z,7.55
2019-04-23T23:49:36.163Z,8.55
2019-04-23T23:52:41.053Z,7.72
2019-04-23T23:55:37.913Z,7.55
2019-04-23T23:58:55.284Z,7.50
